sensor_id;sensor_type;location;lat;lon;timestamp;temperature;humidity
20208;DHT22;10263;48.716;8.760;2023-06-22T00:00:52;19.70;99.90
20208;DHT22;10263;48.716;8.760;2023-06-22T00:03:22;19.60;99.90
20208;DHT22;10263;48.716;8.760;2023-06-22T00:05:50;19.60;99.90
20208;DHT22;10263;48.716;8.760;2023-06-22T00:08:18;19.60;99.90
20208;DHT22;10263;48.716;8.760;2023-06-22T00:10:45;19.60;99.90
20208;DHT22;10263;48.716;8.760;2023-06-22T00:13:14;19.60;99.90
20208;DHT22;10263;48.716;8.760;2023-06-22T00:15:42;19.50;99.90
20208;DHT22;10263;48.716;8.760;2023-06-22T00:18:10;19.50;99.90
20208;DHT22;10263;48.716;8.760;2023-06-22T00:20:38;19.50;99.90
20208;DHT22;10263;48.716;8.760;2023-06-22T00:23:06;19.50;99.90
20208;DHT22;10263;48.716;8.760;2023-06-22T00:25:34;19.50;99.90
20208;DHT22;10263;48.716;8.760;2023-06-22T00:28:01;19.50;99.90
20208;DHT22;10263;48.716;8.760;2023-06-22T00:30:28;19.40;99.90
20208;DHT22;10263;48.716;8.760;2023-06-22T00:32:58;19.40;99.90
20208;DHT22;10263;48.716;8.760;2023-06-22T00:35:25;19.40;99.90
20208;DHT22;10263;48.716;8.760;2023-06-22T00:37:55;19.40;99.90
20208;DHT22;10263;48.716;8.760;2023-06-22T00:40:26;19.40;99.90
20208;DHT22;10263;48.716;8.760;2023-06-22T00:42:53;19.30;99.90
20208;DHT22;10263;48.716;8.760;2023-06-22T00:45:20;19.20;99.90
20208;DHT22;10263;48.716;8.760;2023-06-22T00:47:50;19.20;99.90
20208;DHT22;10263;48.716;8.760;2023-06-22T00:50:21;19.20;99.90
20208;DHT22;10263;48.716;8.760;2023-06-22T00:52:51;19.10;99.90
20208;DHT22;10263;48.716;8.760;2023-06-22T00:55:19;19.10;99.90
20208;DHT22;10263;48.716;8.760;2023-06-22T00:57:46;19.10;99.90
20208;DHT22;10263;48.716;8.760;2023-06-22T01:00:15;19.10;99.90
20208;DHT22;10263;48.716;8.760;2023-06-22T01:02:43;19.10;99.90
20208;DHT22;10263;48.716;8.760;2023-06-22T01:05:12;19.10;99.90
20208;DHT22;10263;48.716;8.760;2023-06-22T01:07:48;19.00;99.90
20208;DHT22;10263;48.716;8.760;2023-06-22T01:10:27;19.00;99.90
20208;DHT22;10263;48.716;8.760;2023-06-22T01:13:02;19.00;99.90
20208;DHT22;10263;48.716;8.760;2023-06-22T01:15:33;18.90;99.90
20208;DHT22;10263;48.716;8.760;2023-06-22T01:18:03;18.90;99.90
20208;DHT22;10263;48.716;8.760;2023-06-22T01:20:31;18.90;99.90
20208;DHT22;10263;48.716;8.760;2023-06-22T01:23:09;18.90;99.90
20208;DHT22;10263;48.716;8.760;2023-06-22T01:25:45;18.90;99.90
20208;DHT22;10263;48.716;8.760;2023-06-22T01:28:23;18.80;99.90
20208;DHT22;10263;48.716;8.760;2023-06-22T01:30:52;18.80;99.90
20208;DHT22;10263;48.716;8.760;2023-06-22T01:33:29;18.80;99.90
20208;DHT22;10263;48.716;8.760;2023-06-22T01:35:57;18.80;99.90
20208;DHT22;10263;48.716;8.760;2023-06-22T01:38:25;18.70;99.90
20208;DHT22;10263;48.716;8.760;2023-06-22T01:40:52;18.70;99.90
20208;DHT22;10263;48.716;8.760;2023-06-22T01:43:21;18.80;99.90
20208;DHT22;10263;48.716;8.760;2023-06-22T01:45:48;18.70;99.90
20208;DHT22;10263;48.716;8.760;2023-06-22T01:48:17;18.70;99.90
20208;DHT22;10263;48.716;8.760;2023-06-22T01:50:44;18.70;99.90
20208;DHT22;10263;48.716;8.760;2023-06-22T01:53:12;18.60;99.90
20208;DHT22;10263;48.716;8.760;2023-06-22T01:55:38;18.60;99.90
20208;DHT22;10263;48.716;8.760;2023-06-22T01:58:05;18.60;99.90
20208;DHT22;10263;48.716;8.760;2023-06-22T02:00:36;18.60;99.90
20208;DHT22;10263;48.716;8.760;2023-06-22T02:03:08;18.60;99.90
20208;DHT22;10263;48.716;8.760;2023-06-22T02:05:51;18.60;99.90
20208;DHT22;10263;48.716;8.760;2023-06-22T02:08:24;18.50;99.90
20208;DHT22;10263;48.716;8.760;2023-06-22T02:10:52;18.50;99.90
20208;DHT22;10263;48.716;8.760;2023-06-22T02:13:21;18.50;99.90
20208;DHT22;10263;48.716;8.760;2023-06-22T02:15:48;18.50;99.90
20208;DHT22;10263;48.716;8.760;2023-06-22T02:18:15;18.50;99.90
20208;DHT22;10263;48.716;8.760;2023-06-22T02:20:43;18.40;99.90
20208;DHT22;10263;48.716;8.760;2023-06-22T02:23:10;18.40;99.90
20208;DHT22;10263;48.716;8.760;2023-06-22T02:25:37;18.40;99.90
20208;DHT22;10263;48.716;8.760;2023-06-22T02:28:04;18.40;99.90
20208;DHT22;10263;48.716;8.760;2023-06-22T02:30:31;18.30;99.90
20208;DHT22;10263;48.716;8.760;2023-06-22T02:32:59;18.30;99.90
20208;DHT22;10263;48.716;8.760;2023-06-22T02:35:26;18.30;99.90
20208;DHT22;10263;48.716;8.760;2023-06-22T02:37:58;18.20;99.90
20208;DHT22;10263;48.716;8.760;2023-06-22T02:40:26;18.20;99.90
20208;DHT22;10263;48.716;8.760;2023-06-22T02:42:55;18.00;99.90
20208;DHT22;10263;48.716;8.760;2023-06-22T02:45:23;18.00;99.90
20208;DHT22;10263;48.716;8.760;2023-06-22T02:47:50;18.00;99.90
20208;DHT22;10263;48.716;8.760;2023-06-22T02:50:17;18.00;99.90
20208;DHT22;10263;48.716;8.760;2023-06-22T02:52:44;18.00;99.90
20208;DHT22;10263;48.716;8.760;2023-06-22T02:55:13;18.00;99.90
20208;DHT22;10263;48.716;8.760;2023-06-22T02:57:42;18.00;99.90
20208;DHT22;10263;48.716;8.760;2023-06-22T03:00:10;18.00;99.90
20208;DHT22;10263;48.716;8.760;2023-06-22T03:02:43;17.90;99.90
20208;DHT22;10263;48.716;8.760;2023-06-22T03:05:11;17.90;99.90
20208;DHT22;10263;48.716;8.760;2023-06-22T03:07:39;17.90;99.90
20208;DHT22;10263;48.716;8.760;2023-06-22T03:10:07;17.80;99.90
20208;DHT22;10263;48.716;8.760;2023-06-22T03:12:36;17.80;99.90
20208;DHT22;10263;48.716;8.760;2023-06-22T03:15:05;17.80;99.90
20208;DHT22;10263;48.716;8.760;2023-06-22T03:17:32;17.80;99.90
20208;DHT22;10263;48.716;8.760;2023-06-22T03:19:58;17.70;99.90
20208;DHT22;10263;48.716;8.760;2023-06-22T03:22:25;17.70;99.90
20208;DHT22;10263;48.716;8.760;2023-06-22T03:24:52;17.70;99.90
20208;DHT22;10263;48.716;8.760;2023-06-22T03:27:20;17.70;99.90
20208;DHT22;10263;48.716;8.760;2023-06-22T03:29:48;17.60;99.90
20208;DHT22;10263;48.716;8.760;2023-06-22T03:32:15;17.60;99.90
20208;DHT22;10263;48.716;8.760;2023-06-22T03:34:41;17.60;99.90
20208;DHT22;10263;48.716;8.760;2023-06-22T03:37:13;17.60;99.90
20208;DHT22;10263;48.716;8.760;2023-06-22T03:39:41;17.60;99.90
20208;DHT22;10263;48.716;8.760;2023-06-22T03:42:08;17.60;99.90
20208;DHT22;10263;48.716;8.760;2023-06-22T03:44:35;17.60;99.90
20208;DHT22;10263;48.716;8.760;2023-06-22T03:47:04;17.50;99.90
20208;DHT22;10263;48.716;8.760;2023-06-22T03:49:33;17.50;99.90
20208;DHT22;10263;48.716;8.760;2023-06-22T03:52:00;17.50;99.90
20208;DHT22;10263;48.716;8.760;2023-06-22T03:54:28;17.50;99.90
20208;DHT22;10263;48.716;8.760;2023-06-22T03:56:55;17.50;99.90
20208;DHT22;10263;48.716;8.760;2023-06-22T03:59:22;17.50;99.90
20208;DHT22;10263;48.716;8.760;2023-06-22T04:01:49;17.40;99.90
20208;DHT22;10263;48.716;8.760;2023-06-22T04:04:17;17.50;99.90
20208;DHT22;10263;48.716;8.760;2023-06-22T04:06:44;17.50;99.90
20208;DHT22;10263;48.716;8.760;2023-06-22T04:09:11;17.50;99.90
20208;DHT22;10263;48.716;8.760;2023-06-22T04:11:38;17.50;99.90
20208;DHT22;10263;48.716;8.760;2023-06-22T04:14:05;17.50;99.90
20208;DHT22;10263;48.716;8.760;2023-06-22T04:16:31;17.50;99.90
20208;DHT22;10263;48.716;8.760;2023-06-22T04:18:58;17.50;99.90
20208;DHT22;10263;48.716;8.760;2023-06-22T04:21:26;17.60;99.90
20208;DHT22;10263;48.716;8.760;2023-06-22T04:23:53;17.60;99.90
20208;DHT22;10263;48.716;8.760;2023-06-22T04:26:20;17.70;99.90
20208;DHT22;10263;48.716;8.760;2023-06-22T04:28:47;17.70;99.90
20208;DHT22;10263;48.716;8.760;2023-06-22T04:31:17;17.70;99.90
20208;DHT22;10263;48.716;8.760;2023-06-22T04:33:44;17.70;99.90
20208;DHT22;10263;48.716;8.760;2023-06-22T04:36:11;17.80;99.90
20208;DHT22;10263;48.716;8.760;2023-06-22T04:38:40;17.80;99.90
20208;DHT22;10263;48.716;8.760;2023-06-22T04:41:07;17.80;99.90
20208;DHT22;10263;48.716;8.760;2023-06-22T04:43:39;17.80;99.90
20208;DHT22;10263;48.716;8.760;2023-06-22T04:46:06;17.90;99.90
20208;DHT22;10263;48.716;8.760;2023-06-22T04:48:33;18.00;99.90
20208;DHT22;10263;48.716;8.760;2023-06-22T04:51:00;18.00;99.90
20208;DHT22;10263;48.716;8.760;2023-06-22T04:53:29;18.10;99.90
20208;DHT22;10263;48.716;8.760;2023-06-22T04:55:57;18.10;99.90
20208;DHT22;10263;48.716;8.760;2023-06-22T04:58:24;18.10;99.90
20208;DHT22;10263;48.716;8.760;2023-06-22T05:00:52;18.20;99.90
20208;DHT22;10263;48.716;8.760;2023-06-22T05:03:24;18.30;99.90
20208;DHT22;10263;48.716;8.760;2023-06-22T05:05:51;18.40;99.90
20208;DHT22;10263;48.716;8.760;2023-06-22T05:08:19;18.40;99.90
20208;DHT22;10263;48.716;8.760;2023-06-22T05:10:46;18.40;99.90
20208;DHT22;10263;48.716;8.760;2023-06-22T05:13:14;18.50;99.90
20208;DHT22;10263;48.716;8.760;2023-06-22T05:15:41;18.60;99.90
20208;DHT22;10263;48.716;8.760;2023-06-22T05:18:07;18.50;99.90
20208;DHT22;10263;48.716;8.760;2023-06-22T05:20:34;18.60;99.90
20208;DHT22;10263;48.716;8.760;2023-06-22T05:23:01;18.70;99.90
20208;DHT22;10263;48.716;8.760;2023-06-22T05:25:28;18.70;99.90
20208;DHT22;10263;48.716;8.760;2023-06-22T05:27:58;18.80;99.90
20208;DHT22;10263;48.716;8.760;2023-06-22T05:30:27;18.90;99.90
20208;DHT22;10263;48.716;8.760;2023-06-22T05:32:53;18.90;99.90
20208;DHT22;10263;48.716;8.760;2023-06-22T05:35:20;18.90;99.90
20208;DHT22;10263;48.716;8.760;2023-06-22T05:37:47;19.00;99.90
20208;DHT22;10263;48.716;8.760;2023-06-22T05:40:14;19.00;99.90
20208;DHT22;10263;48.716;8.760;2023-06-22T05:42:41;19.10;99.90
20208;DHT22;10263;48.716;8.760;2023-06-22T05:45:08;19.10;99.90
20208;DHT22;10263;48.716;8.760;2023-06-22T05:47:36;19.20;99.90
20208;DHT22;10263;48.716;8.760;2023-06-22T05:50:04;19.30;99.90
20208;DHT22;10263;48.716;8.760;2023-06-22T05:52:33;19.40;99.90
20208;DHT22;10263;48.716;8.760;2023-06-22T05:55:02;19.40;99.90
20208;DHT22;10263;48.716;8.760;2023-06-22T05:57:28;19.60;99.90
20208;DHT22;10263;48.716;8.760;2023-06-22T05:59:55;19.60;99.90
20208;DHT22;10263;48.716;8.760;2023-06-22T06:02:22;19.70;99.90
20208;DHT22;10263;48.716;8.760;2023-06-22T06:04:50;19.80;99.90
20208;DHT22;10263;48.716;8.760;2023-06-22T06:07:18;20.00;99.90
20208;DHT22;10263;48.716;8.760;2023-06-22T06:09:45;20.10;99.90
20208;DHT22;10263;48.716;8.760;2023-06-22T06:12:11;20.20;99.90
20208;DHT22;10263;48.716;8.760;2023-06-22T06:14:38;20.30;99.90
20208;DHT22;10263;48.716;8.760;2023-06-22T06:17:05;20.50;99.90
20208;DHT22;10263;48.716;8.760;2023-06-22T06:19:32;20.60;99.90
20208;DHT22;10263;48.716;8.760;2023-06-22T06:22:00;20.70;99.90
20208;DHT22;10263;48.716;8.760;2023-06-22T06:24:27;20.90;99.90
20208;DHT22;10263;48.716;8.760;2023-06-22T06:26:53;21.00;99.90
20208;DHT22;10263;48.716;8.760;2023-06-22T06:29:20;21.10;99.90
20208;DHT22;10263;48.716;8.760;2023-06-22T06:31:49;21.30;99.90
20208;DHT22;10263;48.716;8.760;2023-06-22T06:34:16;21.40;99.90
20208;DHT22;10263;48.716;8.760;2023-06-22T06:36:42;21.60;99.90
20208;DHT22;10263;48.716;8.760;2023-06-22T06:39:11;21.70;99.90
20208;DHT22;10263;48.716;8.760;2023-06-22T06:41:37;21.90;99.90
20208;DHT22;10263;48.716;8.760;2023-06-22T06:44:14;22.10;99.90
20208;DHT22;10263;48.716;8.760;2023-06-22T06:46:40;22.20;99.90
20208;DHT22;10263;48.716;8.760;2023-06-22T06:49:07;22.40;99.90
20208;DHT22;10263;48.716;8.760;2023-06-22T06:51:34;22.60;99.90
20208;DHT22;10263;48.716;8.760;2023-06-22T06:54:01;22.70;99.90
20208;DHT22;10263;48.716;8.760;2023-06-22T06:56:30;22.90;99.90
20208;DHT22;10263;48.716;8.760;2023-06-22T06:58:58;23.00;99.90
20208;DHT22;10263;48.716;8.760;2023-06-22T07:01:25;23.20;99.90
20208;DHT22;10263;48.716;8.760;2023-06-22T07:03:52;23.40;99.90
20208;DHT22;10263;48.716;8.760;2023-06-22T07:06:19;23.60;99.90
20208;DHT22;10263;48.716;8.760;2023-06-22T07:08:45;23.80;99.90
20208;DHT22;10263;48.716;8.760;2023-06-22T07:11:12;24.00;99.90
20208;DHT22;10263;48.716;8.760;2023-06-22T07:13:40;24.10;99.90
20208;DHT22;10263;48.716;8.760;2023-06-22T07:16:07;24.30;99.90
20208;DHT22;10263;48.716;8.760;2023-06-22T07:18:34;24.50;99.90
20208;DHT22;10263;48.716;8.760;2023-06-22T07:21:00;24.70;99.90
20208;DHT22;10263;48.716;8.760;2023-06-22T07:23:29;24.80;99.90
20208;DHT22;10263;48.716;8.760;2023-06-22T07:25:56;25.20;99.90
20208;DHT22;10263;48.716;8.760;2023-06-22T07:28:22;25.50;99.90
20208;DHT22;10263;48.716;8.760;2023-06-22T07:30:50;25.60;99.90
20208;DHT22;10263;48.716;8.760;2023-06-22T07:33:17;25.70;99.90
20208;DHT22;10263;48.716;8.760;2023-06-22T07:35:45;25.80;99.90
20208;DHT22;10263;48.716;8.760;2023-06-22T07:38:13;25.90;99.90
20208;DHT22;10263;48.716;8.760;2023-06-22T07:40:40;26.10;99.90
20208;DHT22;10263;48.716;8.760;2023-06-22T07:43:07;26.30;99.90
20208;DHT22;10263;48.716;8.760;2023-06-22T07:45:34;26.40;99.90
20208;DHT22;10263;48.716;8.760;2023-06-22T07:48:02;26.60;99.90
20208;DHT22;10263;48.716;8.760;2023-06-22T07:50:29;26.80;99.90
20208;DHT22;10263;48.716;8.760;2023-06-22T07:52:57;26.90;99.90
20208;DHT22;10263;48.716;8.760;2023-06-22T07:55:23;27.20;99.90
20208;DHT22;10263;48.716;8.760;2023-06-22T07:57:50;27.40;99.90
20208;DHT22;10263;48.716;8.760;2023-06-22T08:00:18;27.60;99.90
20208;DHT22;10263;48.716;8.760;2023-06-22T08:02:46;27.50;99.90
20208;DHT22;10263;48.716;8.760;2023-06-22T08:05:15;27.50;99.90
20208;DHT22;10263;48.716;8.760;2023-06-22T08:07:43;27.50;99.90
20208;DHT22;10263;48.716;8.760;2023-06-22T08:10:10;27.50;99.90
20208;DHT22;10263;48.716;8.760;2023-06-22T08:12:38;27.50;99.90
20208;DHT22;10263;48.716;8.760;2023-06-22T08:15:06;27.30;99.90
20208;DHT22;10263;48.716;8.760;2023-06-22T08:17:35;26.60;99.90
20208;DHT22;10263;48.716;8.760;2023-06-22T08:20:03;26.30;99.90
20208;DHT22;10263;48.716;8.760;2023-06-22T08:22:35;26.10;99.90
20208;DHT22;10263;48.716;8.760;2023-06-22T08:25:03;25.60;99.90
20208;DHT22;10263;48.716;8.760;2023-06-22T08:27:30;25.50;99.90
20208;DHT22;10263;48.716;8.760;2023-06-22T08:29:58;25.30;99.90
20208;DHT22;10263;48.716;8.760;2023-06-22T08:32:25;25.10;99.90
20208;DHT22;10263;48.716;8.760;2023-06-22T08:34:52;25.10;99.90
20208;DHT22;10263;48.716;8.760;2023-06-22T08:37:19;25.10;99.90
20208;DHT22;10263;48.716;8.760;2023-06-22T08:39:47;25.20;99.90
20208;DHT22;10263;48.716;8.760;2023-06-22T08:42:14;25.40;99.90
20208;DHT22;10263;48.716;8.760;2023-06-22T08:44:41;25.70;99.90
20208;DHT22;10263;48.716;8.760;2023-06-22T08:47:07;25.90;99.90
20208;DHT22;10263;48.716;8.760;2023-06-22T08:49:34;26.20;99.90
20208;DHT22;10263;48.716;8.760;2023-06-22T08:52:01;26.80;99.90
20208;DHT22;10263;48.716;8.760;2023-06-22T08:54:28;27.40;99.90
20208;DHT22;10263;48.716;8.760;2023-06-22T08:56:56;28.10;99.90
20208;DHT22;10263;48.716;8.760;2023-06-22T08:59:23;28.70;99.90
20208;DHT22;10263;48.716;8.760;2023-06-22T09:01:49;28.80;99.90
20208;DHT22;10263;48.716;8.760;2023-06-22T09:04:16;28.50;99.90
20208;DHT22;10263;48.716;8.760;2023-06-22T09:06:43;28.30;99.90
20208;DHT22;10263;48.716;8.760;2023-06-22T09:09:12;28.00;99.90
20208;DHT22;10263;48.716;8.760;2023-06-22T09:11:39;27.70;99.90
20208;DHT22;10263;48.716;8.760;2023-06-22T09:14:07;27.30;99.90
20208;DHT22;10263;48.716;8.760;2023-06-22T09:16:34;27.00;99.90
20208;DHT22;10263;48.716;8.760;2023-06-22T09:19:01;26.90;99.90
20208;DHT22;10263;48.716;8.760;2023-06-22T09:21:27;27.70;99.90
20208;DHT22;10263;48.716;8.760;2023-06-22T09:23:54;29.30;99.90
20208;DHT22;10263;48.716;8.760;2023-06-22T09:26:21;30.90;99.90
20208;DHT22;10263;48.716;8.760;2023-06-22T09:28:49;32.20;99.90
20208;DHT22;10263;48.716;8.760;2023-06-22T09:31:18;33.20;96.30
20208;DHT22;10263;48.716;8.760;2023-06-22T09:33:51;33.40;95.00
20208;DHT22;10263;48.716;8.760;2023-06-22T09:36:18;33.50;94.00
20208;DHT22;10263;48.716;8.760;2023-06-22T09:38:44;33.80;92.50
20208;DHT22;10263;48.716;8.760;2023-06-22T09:41:11;34.20;92.30
20208;DHT22;10263;48.716;8.760;2023-06-22T09:43:38;34.30;90.90
20208;DHT22;10263;48.716;8.760;2023-06-22T09:46:05;34.60;91.60
20208;DHT22;10263;48.716;8.760;2023-06-22T09:48:34;34.90;90.10
20208;DHT22;10263;48.716;8.760;2023-06-22T09:51:00;34.90;89.30
20208;DHT22;10263;48.716;8.760;2023-06-22T09:53:27;34.60;87.40
20208;DHT22;10263;48.716;8.760;2023-06-22T09:55:54;34.10;89.20
20208;DHT22;10263;48.716;8.760;2023-06-22T09:58:21;33.40;89.00
20208;DHT22;10263;48.716;8.760;2023-06-22T10:00:48;33.00;90.40
20208;DHT22;10263;48.716;8.760;2023-06-22T10:03:14;33.10;90.60
20208;DHT22;10263;48.716;8.760;2023-06-22T10:05:42;33.40;89.50
20208;DHT22;10263;48.716;8.760;2023-06-22T10:08:09;33.30;88.30
20208;DHT22;10263;48.716;8.760;2023-06-22T10:10:36;33.30;90.00
20208;DHT22;10263;48.716;8.760;2023-06-22T10:13:08;33.20;88.20
20208;DHT22;10263;48.716;8.760;2023-06-22T10:15:36;33.10;88.50
20208;DHT22;10263;48.716;8.760;2023-06-22T10:18:03;33.20;90.80
20208;DHT22;10263;48.716;8.760;2023-06-22T10:20:29;33.30;89.70
20208;DHT22;10263;48.716;8.760;2023-06-22T10:22:57;34.10;89.70
20208;DHT22;10263;48.716;8.760;2023-06-22T10:25:24;34.90;86.50
20208;DHT22;10263;48.716;8.760;2023-06-22T10:27:51;35.30;84.90
20208;DHT22;10263;48.716;8.760;2023-06-22T10:30:18;35.50;84.00
20208;DHT22;10263;48.716;8.760;2023-06-22T10:32:44;35.40;84.70
20208;DHT22;10263;48.716;8.760;2023-06-22T10:35:11;35.00;82.30
20208;DHT22;10263;48.716;8.760;2023-06-22T10:37:42;34.20;83.20
20208;DHT22;10263;48.716;8.760;2023-06-22T10:40:11;33.70;83.20
20208;DHT22;10263;48.716;8.760;2023-06-22T10:42:38;33.10;86.50
20208;DHT22;10263;48.716;8.760;2023-06-22T10:45:06;33.00;90.20
20208;DHT22;10263;48.716;8.760;2023-06-22T10:47:33;32.70;89.20
20208;DHT22;10263;48.716;8.760;2023-06-22T10:50:00;32.50;90.20
20208;DHT22;10263;48.716;8.760;2023-06-22T10:52:27;32.60;89.60
20208;DHT22;10263;48.716;8.760;2023-06-22T10:54:54;32.70;90.90
20208;DHT22;10263;48.716;8.760;2023-06-22T10:57:22;32.80;91.30
20208;DHT22;10263;48.716;8.760;2023-06-22T10:59:49;32.70;90.40
20208;DHT22;10263;48.716;8.760;2023-06-22T11:02:16;32.70;89.90
20208;DHT22;10263;48.716;8.760;2023-06-22T11:04:42;33.10;91.00
20208;DHT22;10263;48.716;8.760;2023-06-22T11:07:09;33.30;87.20
20208;DHT22;10263;48.716;8.760;2023-06-22T11:09:36;33.10;89.80
20208;DHT22;10263;48.716;8.760;2023-06-22T11:12:06;33.10;89.10
20208;DHT22;10263;48.716;8.760;2023-06-22T11:14:34;32.80;90.00
20208;DHT22;10263;48.716;8.760;2023-06-22T11:17:01;32.50;88.20
20208;DHT22;10263;48.716;8.760;2023-06-22T11:19:28;32.40;90.70
20208;DHT22;10263;48.716;8.760;2023-06-22T11:21:54;32.20;90.00
20208;DHT22;10263;48.716;8.760;2023-06-22T11:24:21;32.20;90.50
20208;DHT22;10263;48.716;8.760;2023-06-22T11:26:48;32.30;91.60
20208;DHT22;10263;48.716;8.760;2023-06-22T11:29:15;32.30;91.60
20208;DHT22;10263;48.716;8.760;2023-06-22T11:31:43;32.50;89.60
20208;DHT22;10263;48.716;8.760;2023-06-22T11:34:10;32.50;89.60
20208;DHT22;10263;48.716;8.760;2023-06-22T11:36:37;32.50;90.10
20208;DHT22;10263;48.716;8.760;2023-06-22T11:39:03;32.50;91.10
20208;DHT22;10263;48.716;8.760;2023-06-22T11:41:31;32.50;89.80
20208;DHT22;10263;48.716;8.760;2023-06-22T11:43:58;32.40;89.60
20208;DHT22;10263;48.716;8.760;2023-06-22T11:46:24;32.20;92.10
20208;DHT22;10263;48.716;8.760;2023-06-22T11:48:53;32.00;92.10
20208;DHT22;10263;48.716;8.760;2023-06-22T11:51:19;31.90;93.30
20208;DHT22;10263;48.716;8.760;2023-06-22T11:53:46;31.60;91.00
20208;DHT22;10263;48.716;8.760;2023-06-22T11:56:13;31.40;92.20
20208;DHT22;10263;48.716;8.760;2023-06-22T11:58:39;31.30;92.10
20208;DHT22;10263;48.716;8.760;2023-06-22T12:01:06;31.20;91.70
20208;DHT22;10263;48.716;8.760;2023-06-22T12:03:33;31.10;92.20
20208;DHT22;10263;48.716;8.760;2023-06-22T12:06:01;31.00;92.20
20208;DHT22;10263;48.716;8.760;2023-06-22T12:08:28;31.00;92.00
20208;DHT22;10263;48.716;8.760;2023-06-22T12:10:54;31.00;93.40
20208;DHT22;10263;48.716;8.760;2023-06-22T12:13:21;31.10;92.70
20208;DHT22;10263;48.716;8.760;2023-06-22T12:15:48;31.30;91.90
20208;DHT22;10263;48.716;8.760;2023-06-22T12:18:17;31.50;93.60
20208;DHT22;10263;48.716;8.760;2023-06-22T12:20:46;31.70;94.70
20208;DHT22;10263;48.716;8.760;2023-06-22T12:23:14;31.80;93.80
20208;DHT22;10263;48.716;8.760;2023-06-22T12:25:41;31.80;92.50
20208;DHT22;10263;48.716;8.760;2023-06-22T12:28:08;31.80;93.00
20208;DHT22;10263;48.716;8.760;2023-06-22T12:30:35;31.80;93.70
20208;DHT22;10263;48.716;8.760;2023-06-22T12:33:01;31.80;92.30
20208;DHT22;10263;48.716;8.760;2023-06-22T12:35:28;31.80;93.20
20208;DHT22;10263;48.716;8.760;2023-06-22T12:37:55;31.80;92.10
20208;DHT22;10263;48.716;8.760;2023-06-22T12:40:23;31.70;91.70
20208;DHT22;10263;48.716;8.760;2023-06-22T12:42:50;31.50;92.60
20208;DHT22;10263;48.716;8.760;2023-06-22T12:45:17;31.60;93.60
20208;DHT22;10263;48.716;8.760;2023-06-22T12:47:45;31.50;93.50
20208;DHT22;10263;48.716;8.760;2023-06-22T12:50:12;31.50;91.70
20208;DHT22;10263;48.716;8.760;2023-06-22T12:52:39;31.40;92.20
20208;DHT22;10263;48.716;8.760;2023-06-22T12:55:07;31.40;92.50
20208;DHT22;10263;48.716;8.760;2023-06-22T12:57:35;31.40;93.10
20208;DHT22;10263;48.716;8.760;2023-06-22T13:00:02;31.20;93.30
20208;DHT22;10263;48.716;8.760;2023-06-22T13:02:30;30.90;93.30
20208;DHT22;10263;48.716;8.760;2023-06-22T13:04:57;30.70;93.80
20208;DHT22;10263;48.716;8.760;2023-06-22T13:07:24;30.60;93.80
20208;DHT22;10263;48.716;8.760;2023-06-22T13:09:51;30.50;94.50
20208;DHT22;10263;48.716;8.760;2023-06-22T13:12:18;30.40;94.50
20208;DHT22;10263;48.716;8.760;2023-06-22T13:14:47;30.20;95.20
20208;DHT22;10263;48.716;8.760;2023-06-22T13:17:14;30.00;97.00
20208;DHT22;10263;48.716;8.760;2023-06-22T13:19:40;29.90;95.60
20208;DHT22;10263;48.716;8.760;2023-06-22T13:22:26;29.90;95.30
20208;DHT22;10263;48.716;8.760;2023-06-22T13:24:53;29.90;95.40
20208;DHT22;10263;48.716;8.760;2023-06-22T13:27:20;30.00;95.20
20208;DHT22;10263;48.716;8.760;2023-06-22T13:29:48;30.10;95.00
20208;DHT22;10263;48.716;8.760;2023-06-22T13:32:15;30.20;95.30
20208;DHT22;10263;48.716;8.760;2023-06-22T13:34:42;30.30;95.80
20208;DHT22;10263;48.716;8.760;2023-06-22T13:37:09;30.50;95.90
20208;DHT22;10263;48.716;8.760;2023-06-22T13:39:35;30.40;95.60
20208;DHT22;10263;48.716;8.760;2023-06-22T13:42:02;30.50;95.10
20208;DHT22;10263;48.716;8.760;2023-06-22T13:44:29;30.50;95.50
20208;DHT22;10263;48.716;8.760;2023-06-22T13:46:57;30.30;95.00
20208;DHT22;10263;48.716;8.760;2023-06-22T13:49:24;30.20;95.80
20208;DHT22;10263;48.716;8.760;2023-06-22T13:51:51;30.10;95.00
20208;DHT22;10263;48.716;8.760;2023-06-22T13:54:18;30.00;94.90
20208;DHT22;10263;48.716;8.760;2023-06-22T13:56:45;30.00;92.10
20208;DHT22;10263;48.716;8.760;2023-06-22T13:59:11;30.00;87.20
20208;DHT22;10263;48.716;8.760;2023-06-22T14:01:38;30.00;81.40
20208;DHT22;10263;48.716;8.760;2023-06-22T14:04:07;29.90;80.00
20208;DHT22;10263;48.716;8.760;2023-06-22T14:06:34;29.90;77.20
20208;DHT22;10263;48.716;8.760;2023-06-22T14:09:01;30.00;75.20
20208;DHT22;10263;48.716;8.760;2023-06-22T14:11:28;30.00;75.10
20208;DHT22;10263;48.716;8.760;2023-06-22T14:13:55;30.00;75.10
20208;DHT22;10263;48.716;8.760;2023-06-22T14:16:21;30.00;74.90
20208;DHT22;10263;48.716;8.760;2023-06-22T14:18:48;30.00;75.10
20208;DHT22;10263;48.716;8.760;2023-06-22T14:21:16;30.10;76.80
20208;DHT22;10263;48.716;8.760;2023-06-22T14:23:44;30.20;75.90
20208;DHT22;10263;48.716;8.760;2023-06-22T14:26:14;30.20;75.20
20208;DHT22;10263;48.716;8.760;2023-06-22T14:28:43;30.20;77.20
20208;DHT22;10263;48.716;8.760;2023-06-22T14:31:13;30.30;74.60
20208;DHT22;10263;48.716;8.760;2023-06-22T14:33:40;30.40;75.00
20208;DHT22;10263;48.716;8.760;2023-06-22T14:36:07;30.40;72.50
20208;DHT22;10263;48.716;8.760;2023-06-22T14:38:35;30.20;70.60
20208;DHT22;10263;48.716;8.760;2023-06-22T14:41:01;30.20;71.30
20208;DHT22;10263;48.716;8.760;2023-06-22T14:43:28;30.20;73.00
20208;DHT22;10263;48.716;8.760;2023-06-22T14:45:55;30.30;73.50
20208;DHT22;10263;48.716;8.760;2023-06-22T14:48:22;30.40;72.20
20208;DHT22;10263;48.716;8.760;2023-06-22T14:50:49;30.50;71.10
20208;DHT22;10263;48.716;8.760;2023-06-22T14:53:15;30.20;70.80
20208;DHT22;10263;48.716;8.760;2023-06-22T14:55:44;30.20;70.90
20208;DHT22;10263;48.716;8.760;2023-06-22T14:58:10;30.00;71.30
20208;DHT22;10263;48.716;8.760;2023-06-22T15:00:37;30.00;72.80
20208;DHT22;10263;48.716;8.760;2023-06-22T15:03:05;29.90;72.40
20208;DHT22;10263;48.716;8.760;2023-06-22T15:05:33;29.90;72.60
20208;DHT22;10263;48.716;8.760;2023-06-22T15:07:59;29.90;73.20
20208;DHT22;10263;48.716;8.760;2023-06-22T15:10:26;29.90;74.00
20208;DHT22;10263;48.716;8.760;2023-06-22T15:12:54;29.60;73.60
20208;DHT22;10263;48.716;8.760;2023-06-22T15:15:21;29.60;73.70
20208;DHT22;10263;48.716;8.760;2023-06-22T15:17:48;29.50;74.20
20208;DHT22;10263;48.716;8.760;2023-06-22T15:20:15;29.50;75.40
20208;DHT22;10263;48.716;8.760;2023-06-22T15:22:42;29.40;74.00
20208;DHT22;10263;48.716;8.760;2023-06-22T15:25:08;29.40;74.70
20208;DHT22;10263;48.716;8.760;2023-06-22T15:27:36;29.30;77.10
20208;DHT22;10263;48.716;8.760;2023-06-22T15:30:05;29.20;75.20
20208;DHT22;10263;48.716;8.760;2023-06-22T15:32:32;29.10;77.80